sensor_id;sensor_type;location;lat;lon;timestamp;P1;durP1;ratioP1;P2;durP2;ratioP2
26277;SDS011;14000;52.056;8.510;2022-08-19T00:01:20;12.73;;;5.87;;
26277;SDS011;14000;52.056;8.510;2022-08-19T00:03:46;15.17;;;7.53;;
26277;SDS011;14000;52.056;8.510;2022-08-19T00:06:12;12.33;;;5.90;;
26277;SDS011;14000;52.056;8.510;2022-08-19T00:08:38;12.23;;;6.17;;
26277;SDS011;14000;52.056;8.510;2022-08-19T00:11:04;15.80;;;7.60;;
26277;SDS011;14000;52.056;8.510;2022-08-19T00:13:30;13.23;;;6.97;;
26277;SDS011;14000;52.056;8.510;2022-08-19T00:15:56;16.40;;;6.73;;
26277;SDS011;14000;52.056;8.510;2022-08-19T00:18:23;13.67;;;6.67;;
26277;SDS011;14000;52.056;8.510;2022-08-19T00:20:49;17.10;;;8.40;;
26277;SDS011;14000;52.056;8.510;2022-08-19T00:23:14;14.23;;;7.47;;
26277;SDS011;14000;52.056;8.510;2022-08-19T00:25:40;14.77;;;7.00;;
26277;SDS011;14000;52.056;8.510;2022-08-19T00:28:06;16.57;;;8.27;;
26277;SDS011;14000;52.056;8.510;2022-08-19T00:30:32;17.30;;;7.67;;
26277;SDS011;14000;52.056;8.510;2022-08-19T00:32:58;16.93;;;8.57;;
26277;SDS011;14000;52.056;8.510;2022-08-19T00:35:24;18.50;;;9.10;;
26277;SDS011;14000;52.056;8.510;2022-08-19T00:37:52;15.47;;;7.27;;
26277;SDS011;14000;52.056;8.510;2022-08-19T00:40:18;15.00;;;7.90;;
26277;SDS011;14000;52.056;8.510;2022-08-19T00:42:44;15.73;;;7.57;;
26277;SDS011;14000;52.056;8.510;2022-08-19T00:45:11;16.30;;;8.10;;
26277;SDS011;14000;52.056;8.510;2022-08-19T00:47:43;16.47;;;7.80;;
26277;SDS011;14000;52.056;8.510;2022-08-19T00:50:10;15.83;;;8.73;;
26277;SDS011;14000;52.056;8.510;2022-08-19T00:52:39;17.57;;;9.30;;
26277;SDS011;14000;52.056;8.510;2022-08-19T00:55:10;17.27;;;8.57;;
26277;SDS011;14000;52.056;8.510;2022-08-19T00:57:42;20.37;;;9.83;;
26277;SDS011;14000;52.056;8.510;2022-08-19T01:00:12;17.60;;;11.10;;
26277;SDS011;14000;52.056;8.510;2022-08-19T01:02:40;21.67;;;11.10;;
26277;SDS011;14000;52.056;8.510;2022-08-19T01:05:08;18.93;;;10.70;;
26277;SDS011;14000;52.056;8.510;2022-08-19T01:07:37;18.30;;;10.67;;
26277;SDS011;14000;52.056;8.510;2022-08-19T01:10:07;17.67;;;9.73;;
26277;SDS011;14000;52.056;8.510;2022-08-19T01:12:35;21.13;;;11.73;;
26277;SDS011;14000;52.056;8.510;2022-08-19T01:15:01;20.40;;;12.50;;
26277;SDS011;14000;52.056;8.510;2022-08-19T01:17:28;21.10;;;10.97;;
26277;SDS011;14000;52.056;8.510;2022-08-19T01:19:53;17.67;;;9.67;;
26277;SDS011;14000;52.056;8.510;2022-08-19T01:24:48;16.83;;;10.77;;
26277;SDS011;14000;52.056;8.510;2022-08-19T01:27:14;19.37;;;10.90;;
26277;SDS011;14000;52.056;8.510;2022-08-19T01:29:41;20.97;;;11.87;;
26277;SDS011;14000;52.056;8.510;2022-08-19T01:32:11;20.37;;;11.33;;
26277;SDS011;14000;52.056;8.510;2022-08-19T01:34:39;16.77;;;9.23;;
26277;SDS011;14000;52.056;8.510;2022-08-19T01:37:06;16.30;;;9.73;;
26277;SDS011;14000;52.056;8.510;2022-08-19T01:39:36;18.43;;;9.43;;
26277;SDS011;14000;52.056;8.510;2022-08-19T01:42:04;17.43;;;9.77;;
26277;SDS011;14000;52.056;8.510;2022-08-19T01:44:32;16.13;;;10.20;;
26277;SDS011;14000;52.056;8.510;2022-08-19T01:46:58;17.57;;;9.43;;
26277;SDS011;14000;52.056;8.510;2022-08-19T01:49:24;15.10;;;9.10;;
26277;SDS011;14000;52.056;8.510;2022-08-19T01:51:52;15.60;;;9.90;;
26277;SDS011;14000;52.056;8.510;2022-08-19T01:54:19;18.50;;;9.30;;
26277;SDS011;14000;52.056;8.510;2022-08-19T01:56:48;18.20;;;10.00;;
26277;SDS011;14000;52.056;8.510;2022-08-19T01:59:16;19.17;;;10.67;;
26277;SDS011;14000;52.056;8.510;2022-08-19T02:01:45;20.33;;;10.80;;
26277;SDS011;14000;52.056;8.510;2022-08-19T02:04:11;19.33;;;10.43;;
26277;SDS011;14000;52.056;8.510;2022-08-19T02:06:36;17.57;;;11.70;;
26277;SDS011;14000;52.056;8.510;2022-08-19T02:09:03;23.57;;;12.90;;
26277;SDS011;14000;52.056;8.510;2022-08-19T02:11:31;22.60;;;12.70;;
26277;SDS011;14000;52.056;8.510;2022-08-19T02:13:59;23.00;;;12.47;;
26277;SDS011;14000;52.056;8.510;2022-08-19T02:16:27;22.43;;;13.00;;
26277;SDS011;14000;52.056;8.510;2022-08-19T02:18:53;21.10;;;12.77;;
26277;SDS011;14000;52.056;8.510;2022-08-19T02:21:20;20.20;;;12.03;;
26277;SDS011;14000;52.056;8.510;2022-08-19T02:23:47;19.57;;;12.57;;
26277;SDS011;14000;52.056;8.510;2022-08-19T02:26:13;21.07;;;13.60;;
26277;SDS011;14000;52.056;8.510;2022-08-19T02:28:40;21.30;;;13.43;;
26277;SDS011;14000;52.056;8.510;2022-08-19T02:31:15;19.97;;;12.23;;
26277;SDS011;14000;52.056;8.510;2022-08-19T02:33:44;21.40;;;14.50;;
26277;SDS011;14000;52.056;8.510;2022-08-19T02:36:12;22.63;;;14.47;;
26277;SDS011;14000;52.056;8.510;2022-08-19T02:38:38;23.17;;;14.00;;
26277;SDS011;14000;52.056;8.510;2022-08-19T02:41:11;25.53;;;16.13;;
26277;SDS011;14000;52.056;8.510;2022-08-19T02:43:40;26.53;;;15.90;;
26277;SDS011;14000;52.056;8.510;2022-08-19T02:46:20;26.93;;;15.63;;
26277;SDS011;14000;52.056;8.510;2022-08-19T02:48:52;20.30;;;12.50;;
26277;SDS011;14000;52.056;8.510;2022-08-19T02:51:20;21.27;;;13.70;;
26277;SDS011;14000;52.056;8.510;2022-08-19T02:53:51;27.73;;;16.17;;
26277;SDS011;14000;52.056;8.510;2022-08-19T02:56:17;30.33;;;17.53;;
26277;SDS011;14000;52.056;8.510;2022-08-19T02:58:43;21.63;;;14.73;;
26277;SDS011;14000;52.056;8.510;2022-08-19T03:01:09;25.53;;;14.77;;
26277;SDS011;14000;52.056;8.510;2022-08-19T03:03:36;25.77;;;15.83;;
26277;SDS011;14000;52.056;8.510;2022-08-19T03:06:09;25.53;;;16.47;;
26277;SDS011;14000;52.056;8.510;2022-08-19T03:08:38;23.83;;;13.80;;
26277;SDS011;14000;52.056;8.510;2022-08-19T03:11:12;25.07;;;15.47;;
26277;SDS011;14000;52.056;8.510;2022-08-19T03:13:40;24.63;;;16.27;;
26277;SDS011;14000;52.056;8.510;2022-08-19T03:16:05;23.57;;;14.50;;
26277;SDS011;14000;52.056;8.510;2022-08-19T03:18:31;27.77;;;17.60;;
26277;SDS011;14000;52.056;8.510;2022-08-19T03:20:57;29.80;;;16.97;;
26277;SDS011;14000;52.056;8.510;2022-08-19T03:23:23;22.20;;;14.40;;
26277;SDS011;14000;52.056;8.510;2022-08-19T03:25:49;24.73;;;13.47;;
26277;SDS011;14000;52.056;8.510;2022-08-19T03:28:16;21.80;;;14.27;;
26277;SDS011;14000;52.056;8.510;2022-08-19T03:30:43;23.97;;;15.23;;
26277;SDS011;14000;52.056;8.510;2022-08-19T03:33:32;23.37;;;14.97;;
26277;SDS011;14000;52.056;8.510;2022-08-19T03:35:59;22.37;;;14.63;;
26277;SDS011;14000;52.056;8.510;2022-08-19T03:38:34;26.20;;;16.30;;
26277;SDS011;14000;52.056;8.510;2022-08-19T03:41:06;27.97;;;17.40;;
26277;SDS011;14000;52.056;8.510;2022-08-19T03:43:34;25.47;;;15.97;;
26277;SDS011;14000;52.056;8.510;2022-08-19T03:46:07;24.27;;;15.50;;
26277;SDS011;14000;52.056;8.510;2022-08-19T03:48:38;20.80;;;13.30;;
26277;SDS011;14000;52.056;8.510;2022-08-19T03:51:06;28.03;;;16.50;;
26277;SDS011;14000;52.056;8.510;2022-08-19T03:53:34;24.27;;;14.43;;
26277;SDS011;14000;52.056;8.510;2022-08-19T03:56:00;27.20;;;16.60;;
26277;SDS011;14000;52.056;8.510;2022-08-19T03:58:27;26.83;;;15.73;;
26277;SDS011;14000;52.056;8.510;2022-08-19T04:00:57;24.13;;;16.20;;
26277;SDS011;14000;52.056;8.510;2022-08-19T04:03:23;22.60;;;14.77;;
26277;SDS011;14000;52.056;8.510;2022-08-19T04:05:51;22.60;;;14.93;;
26277;SDS011;14000;52.056;8.510;2022-08-19T04:08:18;26.73;;;15.70;;
26277;SDS011;14000;52.056;8.510;2022-08-19T04:10:47;24.37;;;14.87;;
26277;SDS011;14000;52.056;8.510;2022-08-19T04:13:17;25.23;;;16.53;;
26277;SDS011;14000;52.056;8.510;2022-08-19T04:15:44;27.37;;;16.80;;
26277;SDS011;14000;52.056;8.510;2022-08-19T04:18:11;26.23;;;16.70;;
26277;SDS011;14000;52.056;8.510;2022-08-19T04:20:41;21.63;;;14.47;;
26277;SDS011;14000;52.056;8.510;2022-08-19T04:23:11;22.50;;;15.50;;
26277;SDS011;14000;52.056;8.510;2022-08-19T04:25:39;21.57;;;14.80;;
26277;SDS011;14000;52.056;8.510;2022-08-19T04:28:06;27.57;;;17.17;;
26277;SDS011;14000;52.056;8.510;2022-08-19T04:30:41;24.87;;;16.03;;
26277;SDS011;14000;52.056;8.510;2022-08-19T04:33:09;23.80;;;14.33;;
26277;SDS011;14000;52.056;8.510;2022-08-19T04:35:40;23.63;;;14.50;;
26277;SDS011;14000;52.056;8.510;2022-08-19T04:38:08;22.97;;;15.37;;
26277;SDS011;14000;52.056;8.510;2022-08-19T04:40:34;24.57;;;16.20;;
26277;SDS011;14000;52.056;8.510;2022-08-19T04:43:24;26.13;;;16.57;;
26277;SDS011;14000;52.056;8.510;2022-08-19T04:45:50;24.03;;;15.20;;
26277;SDS011;14000;52.056;8.510;2022-08-19T04:48:16;25.77;;;17.10;;
26277;SDS011;14000;52.056;8.510;2022-08-19T04:50:55;27.27;;;18.33;;
26277;SDS011;14000;52.056;8.510;2022-08-19T04:55:57;30.20;;;19.47;;
26277;SDS011;14000;52.056;8.510;2022-08-19T04:58:26;27.27;;;17.00;;
26277;SDS011;14000;52.056;8.510;2022-08-19T05:00:52;24.63;;;15.47;;
26277;SDS011;14000;52.056;8.510;2022-08-19T05:03:19;25.47;;;15.43;;
26277;SDS011;14000;52.056;8.510;2022-08-19T05:05:45;26.70;;;16.83;;
26277;SDS011;14000;52.056;8.510;2022-08-19T05:08:16;26.00;;;17.90;;
26277;SDS011;14000;52.056;8.510;2022-08-19T05:10:47;23.23;;;14.70;;
26277;SDS011;14000;52.056;8.510;2022-08-19T05:13:16;24.60;;;17.57;;
26277;SDS011;14000;52.056;8.510;2022-08-19T05:15:43;28.27;;;17.60;;
26277;SDS011;14000;52.056;8.510;2022-08-19T05:18:09;23.70;;;15.27;;
26277;SDS011;14000;52.056;8.510;2022-08-19T05:20:54;27.07;;;15.73;;
26277;SDS011;14000;52.056;8.510;2022-08-19T05:23:38;25.83;;;17.20;;
26277;SDS011;14000;52.056;8.510;2022-08-19T05:26:04;28.90;;;17.20;;
26277;SDS011;14000;52.056;8.510;2022-08-19T05:28:30;26.97;;;16.70;;
26277;SDS011;14000;52.056;8.510;2022-08-19T05:30:56;29.13;;;17.90;;
26277;SDS011;14000;52.056;8.510;2022-08-19T05:33:22;29.73;;;18.77;;
26277;SDS011;14000;52.056;8.510;2022-08-19T05:35:49;24.27;;;14.73;;
26277;SDS011;14000;52.056;8.510;2022-08-19T05:38:16;22.47;;;15.80;;
26277;SDS011;14000;52.056;8.510;2022-08-19T05:40:42;24.47;;;16.87;;
26277;SDS011;14000;52.056;8.510;2022-08-19T05:43:13;24.77;;;15.67;;
26277;SDS011;14000;52.056;8.510;2022-08-19T05:45:42;21.33;;;14.17;;
26277;SDS011;14000;52.056;8.510;2022-08-19T05:48:09;23.37;;;14.77;;
26277;SDS011;14000;52.056;8.510;2022-08-19T05:50:37;27.00;;;17.03;;
26277;SDS011;14000;52.056;8.510;2022-08-19T05:53:04;27.67;;;17.10;;
26277;SDS011;14000;52.056;8.510;2022-08-19T05:55:30;22.53;;;14.37;;
26277;SDS011;14000;52.056;8.510;2022-08-19T05:57:56;23.63;;;13.67;;
26277;SDS011;14000;52.056;8.510;2022-08-19T06:00:22;26.30;;;15.30;;
26277;SDS011;14000;52.056;8.510;2022-08-19T06:02:48;22.33;;;13.40;;
26277;SDS011;14000;52.056;8.510;2022-08-19T06:05:14;21.07;;;13.30;;
26277;SDS011;14000;52.056;8.510;2022-08-19T06:07:39;18.87;;;12.27;;
26277;SDS011;14000;52.056;8.510;2022-08-19T06:10:06;21.70;;;13.87;;
26277;SDS011;14000;52.056;8.510;2022-08-19T06:12:34;18.10;;;11.77;;
26277;SDS011;14000;52.056;8.510;2022-08-19T06:15:01;22.73;;;14.33;;
26277;SDS011;14000;52.056;8.510;2022-08-19T06:17:29;24.40;;;14.67;;
26277;SDS011;14000;52.056;8.510;2022-08-19T06:19:55;23.47;;;13.67;;
26277;SDS011;14000;52.056;8.510;2022-08-19T06:22:21;21.97;;;13.73;;
26277;SDS011;14000;52.056;8.510;2022-08-19T06:24:47;21.43;;;13.57;;
26277;SDS011;14000;52.056;8.510;2022-08-19T06:27:17;19.87;;;12.30;;
26277;SDS011;14000;52.056;8.510;2022-08-19T06:29:43;19.77;;;12.40;;
26277;SDS011;14000;52.056;8.510;2022-08-19T06:32:09;19.43;;;12.23;;
26277;SDS011;14000;52.056;8.510;2022-08-19T06:34:36;20.63;;;11.80;;
26277;SDS011;14000;52.056;8.510;2022-08-19T06:37:02;19.57;;;11.47;;
26277;SDS011;14000;52.056;8.510;2022-08-19T06:39:30;19.30;;;11.10;;
26277;SDS011;14000;52.056;8.510;2022-08-19T06:41:58;18.03;;;11.70;;
26277;SDS011;14000;52.056;8.510;2022-08-19T06:44:27;17.53;;;10.40;;
26277;SDS011;14000;52.056;8.510;2022-08-19T06:46:54;17.03;;;10.77;;
26277;SDS011;14000;52.056;8.510;2022-08-19T06:49:21;22.43;;;13.40;;
26277;SDS011;14000;52.056;8.510;2022-08-19T06:51:47;18.00;;;10.00;;
26277;SDS011;14000;52.056;8.510;2022-08-19T06:54:17;19.20;;;11.93;;
26277;SDS011;14000;52.056;8.510;2022-08-19T06:56:44;18.67;;;11.67;;
26277;SDS011;14000;52.056;8.510;2022-08-19T06:59:11;16.70;;;11.00;;
26277;SDS011;14000;52.056;8.510;2022-08-19T07:01:40;18.43;;;11.93;;
26277;SDS011;14000;52.056;8.510;2022-08-19T07:04:09;16.83;;;10.67;;
26277;SDS011;14000;52.056;8.510;2022-08-19T07:06:35;17.13;;;10.60;;
26277;SDS011;14000;52.056;8.510;2022-08-19T07:09:05;18.37;;;11.00;;
26277;SDS011;14000;52.056;8.510;2022-08-19T07:11:31;24.13;;;14.43;;
26277;SDS011;14000;52.056;8.510;2022-08-19T07:13:57;21.07;;;12.57;;
26277;SDS011;14000;52.056;8.510;2022-08-19T07:16:24;16.30;;;9.80;;
26277;SDS011;14000;52.056;8.510;2022-08-19T07:18:51;16.03;;;9.93;;
26277;SDS011;14000;52.056;8.510;2022-08-19T07:21:18;18.83;;;9.73;;
26277;SDS011;14000;52.056;8.510;2022-08-19T07:23:48;16.23;;;10.33;;
26277;SDS011;14000;52.056;8.510;2022-08-19T07:26:18;16.53;;;9.43;;
26277;SDS011;14000;52.056;8.510;2022-08-19T07:28:47;20.20;;;10.03;;
26277;SDS011;14000;52.056;8.510;2022-08-19T07:31:14;17.93;;;9.80;;
26277;SDS011;14000;52.056;8.510;2022-08-19T07:33:45;18.10;;;9.67;;
26277;SDS011;14000;52.056;8.510;2022-08-19T07:36:12;19.63;;;9.80;;
26277;SDS011;14000;52.056;8.510;2022-08-19T07:38:43;16.00;;;9.73;;
26277;SDS011;14000;52.056;8.510;2022-08-19T07:41:13;19.20;;;10.03;;
26277;SDS011;14000;52.056;8.510;2022-08-19T07:43:40;15.37;;;9.30;;
26277;SDS011;14000;52.056;8.510;2022-08-19T07:46:06;16.00;;;8.27;;
26277;SDS011;14000;52.056;8.510;2022-08-19T07:48:32;16.70;;;7.67;;
26277;SDS011;14000;52.056;8.510;2022-08-19T07:51:01;14.87;;;6.87;;
26277;SDS011;14000;52.056;8.510;2022-08-19T07:53:29;14.17;;;7.10;;
26277;SDS011;14000;52.056;8.510;2022-08-19T07:55:57;13.83;;;7.50;;
26277;SDS011;14000;52.056;8.510;2022-08-19T07:58:29;12.20;;;7.03;;
26277;SDS011;14000;52.056;8.510;2022-08-19T08:00:57;14.47;;;6.97;;
26277;SDS011;14000;52.056;8.510;2022-08-19T08:03:23;12.63;;;6.43;;
26277;SDS011;14000;52.056;8.510;2022-08-19T08:06:10;12.43;;;6.57;;
26277;SDS011;14000;52.056;8.510;2022-08-19T08:08:56;14.53;;;6.40;;
26277;SDS011;14000;52.056;8.510;2022-08-19T08:11:38;13.27;;;6.30;;
26277;SDS011;14000;52.056;8.510;2022-08-19T08:14:05;11.27;;;5.73;;
26277;SDS011;14000;52.056;8.510;2022-08-19T08:16:35;11.00;;;5.47;;
26277;SDS011;14000;52.056;8.510;2022-08-19T08:19:05;10.43;;;5.87;;
26277;SDS011;14000;52.056;8.510;2022-08-19T08:21:32;14.73;;;6.57;;
26277;SDS011;14000;52.056;8.510;2022-08-19T08:23:59;13.97;;;5.60;;
26277;SDS011;14000;52.056;8.510;2022-08-19T08:26:25;12.57;;;6.90;;
26277;SDS011;14000;52.056;8.510;2022-08-19T08:28:51;11.87;;;5.57;;
26277;SDS011;14000;52.056;8.510;2022-08-19T08:31:17;14.40;;;5.70;;
26277;SDS011;14000;52.056;8.510;2022-08-19T08:33:44;13.40;;;5.63;;
26277;SDS011;14000;52.056;8.510;2022-08-19T08:36:11;12.33;;;5.80;;
26277;SDS011;14000;52.056;8.510;2022-08-19T08:38:38;10.47;;;5.17;;
26277;SDS011;14000;52.056;8.510;2022-08-19T08:44:02;10.90;;;4.53;;
26277;SDS011;14000;52.056;8.510;2022-08-19T08:46:37;9.73;;;4.10;;
26277;SDS011;14000;52.056;8.510;2022-08-19T08:49:26;11.67;;;4.80;;
26277;SDS011;14000;52.056;8.510;2022-08-19T08:52:00;9.93;;;4.33;;
26277;SDS011;14000;52.056;8.510;2022-08-19T08:54:30;9.47;;;4.10;;
26277;SDS011;14000;52.056;8.510;2022-08-19T08:57:10;9.30;;;4.20;;
26277;SDS011;14000;52.056;8.510;2022-08-19T08:59:43;10.80;;;4.53;;
26277;SDS011;14000;52.056;8.510;2022-08-19T09:02:15;9.40;;;4.30;;
26277;SDS011;14000;52.056;8.510;2022-08-19T09:04:41;10.37;;;3.53;;
26277;SDS011;14000;52.056;8.510;2022-08-19T09:07:12;9.83;;;4.47;;
26277;SDS011;14000;52.056;8.510;2022-08-19T09:09:51;9.40;;;4.43;;
26277;SDS011;14000;52.056;8.510;2022-08-19T09:12:30;8.90;;;3.63;;
26277;SDS011;14000;52.056;8.510;2022-08-19T09:15:04;10.67;;;4.43;;
26277;SDS011;14000;52.056;8.510;2022-08-19T09:17:38;9.60;;;3.17;;
26277;SDS011;14000;52.056;8.510;2022-08-19T09:20:25;9.03;;;3.47;;
26277;SDS011;14000;52.056;8.510;2022-08-19T09:22:50;10.43;;;3.83;;
26277;SDS011;14000;52.056;8.510;2022-08-19T09:25:17;9.60;;;3.93;;
26277;SDS011;14000;52.056;8.510;2022-08-19T09:27:46;8.50;;;3.50;;
26277;SDS011;14000;52.056;8.510;2022-08-19T09:30:15;8.70;;;3.53;;
26277;SDS011;14000;52.056;8.510;2022-08-19T09:32:46;8.23;;;3.53;;
26277;SDS011;14000;52.056;8.510;2022-08-19T09:35:12;10.10;;;4.00;;
26277;SDS011;14000;52.056;8.510;2022-08-19T09:37:39;11.23;;;4.77;;
26277;SDS011;14000;52.056;8.510;2022-08-19T09:40:05;10.07;;;4.70;;
26277;SDS011;14000;52.056;8.510;2022-08-19T09:42:32;13.43;;;4.60;;
26277;SDS011;14000;52.056;8.510;2022-08-19T09:44:59;11.70;;;4.30;;
26277;SDS011;14000;52.056;8.510;2022-08-19T09:47:25;10.97;;;4.23;;
26277;SDS011;14000;52.056;8.510;2022-08-19T09:49:50;8.73;;;3.60;;
26277;SDS011;14000;52.056;8.510;2022-08-19T09:52:16;10.77;;;3.73;;
26277;SDS011;14000;52.056;8.510;2022-08-19T09:54:43;11.17;;;3.40;;
26277;SDS011;14000;52.056;8.510;2022-08-19T09:57:08;9.37;;;3.93;;
26277;SDS011;14000;52.056;8.510;2022-08-19T09:59:34;10.50;;;3.83;;
26277;SDS011;14000;52.056;8.510;2022-08-19T10:02:00;9.73;;;3.73;;
26277;SDS011;14000;52.056;8.510;2022-08-19T10:04:26;8.83;;;3.40;;
26277;SDS011;14000;52.056;8.510;2022-08-19T10:07:11;9.27;;;3.50;;
26277;SDS011;14000;52.056;8.510;2022-08-19T10:09:37;9.87;;;3.57;;
26277;SDS011;14000;52.056;8.510;2022-08-19T10:12:03;9.53;;;3.00;;
26277;SDS011;14000;52.056;8.510;2022-08-19T10:14:30;9.70;;;3.13;;
26277;SDS011;14000;52.056;8.510;2022-08-19T10:16:56;9.13;;;3.30;;
26277;SDS011;14000;52.056;8.510;2022-08-19T10:19:22;9.40;;;3.20;;
26277;SDS011;14000;52.056;8.510;2022-08-19T10:21:48;8.43;;;2.60;;
26277;SDS011;14000;52.056;8.510;2022-08-19T10:24:13;8.17;;;2.33;;
26277;SDS011;14000;52.056;8.510;2022-08-19T10:26:40;8.17;;;2.27;;
26277;SDS011;14000;52.056;8.510;2022-08-19T10:29:12;6.40;;;2.20;;
26277;SDS011;14000;52.056;8.510;2022-08-19T10:31:40;8.97;;;2.77;;
26277;SDS011;14000;52.056;8.510;2022-08-19T10:34:06;7.87;;;2.40;;
26277;SDS011;14000;52.056;8.510;2022-08-19T10:36:33;8.07;;;2.43;;
26277;SDS011;14000;52.056;8.510;2022-08-19T10:39:03;8.17;;;2.23;;
26277;SDS011;14000;52.056;8.510;2022-08-19T10:41:35;7.37;;;2.50;;
26277;SDS011;14000;52.056;8.510;2022-08-19T10:44:04;9.00;;;3.20;;
26277;SDS011;14000;52.056;8.510;2022-08-19T10:46:32;8.83;;;2.70;;
26277;SDS011;14000;52.056;8.510;2022-08-19T10:49:00;8.23;;;2.80;;
26277;SDS011;14000;52.056;8.510;2022-08-19T10:51:26;8.33;;;2.80;;
26277;SDS011;14000;52.056;8.510;2022-08-19T10:54:11;9.40;;;3.03;;
26277;SDS011;14000;52.056;8.510;2022-08-19T10:56:36;8.47;;;2.50;;
26277;SDS011;14000;52.056;8.510;2022-08-19T10:59:21;7.33;;;2.80;;
26277;SDS011;14000;52.056;8.510;2022-08-19T11:01:49;7.80;;;2.70;;
26277;SDS011;14000;52.056;8.510;2022-08-19T11:04:16;7.17;;;2.47;;
26277;SDS011;14000;52.056;8.510;2022-08-19T11:06:46;7.73;;;2.70;;
26277;SDS011;14000;52.056;8.510;2022-08-19T11:09:14;7.47;;;2.50;;
26277;SDS011;14000;52.056;8.510;2022-08-19T11:11:42;7.17;;;2.30;;
26277;SDS011;14000;52.056;8.510;2022-08-19T11:14:11;8.30;;;2.60;;
26277;SDS011;14000;52.056;8.510;2022-08-19T11:16:40;7.87;;;2.20;;
26277;SDS011;14000;52.056;8.510;2022-08-19T11:19:09;7.30;;;2.07;;
26277;SDS011;14000;52.056;8.510;2022-08-19T11:21:37;7.57;;;1.80;;
26277;SDS011;14000;52.056;8.510;2022-08-19T11:24:06;7.17;;;2.10;;
26277;SDS011;14000;52.056;8.510;2022-08-19T11:26:34;6.68;;;1.90;;
26277;SDS011;14000;52.056;8.510;2022-08-19T11:29:00;5.53;;;1.40;;
26277;SDS011;14000;52.056;8.510;2022-08-19T11:31:28;9.98;;;2.10;;
26277;SDS011;14000;52.056;8.510;2022-08-19T11:33:56;6.65;;;1.90;;
26277;SDS011;14000;52.056;8.510;2022-08-19T11:36:24;6.63;;;2.03;;
26277;SDS011;14000;52.056;8.510;2022-08-19T11:38:51;5.32;;;1.73;;
26277;SDS011;14000;52.056;8.510;2022-08-19T11:41:18;6.10;;;1.77;;
26277;SDS011;14000;52.056;8.510;2022-08-19T11:43:45;7.85;;;2.22;;
26277;SDS011;14000;52.056;8.510;2022-08-19T11:46:11;6.68;;;2.13;;
26277;SDS011;14000;52.056;8.510;2022-08-19T11:48:39;7.68;;;2.22;;
26277;SDS011;14000;52.056;8.510;2022-08-19T11:51:06;7.20;;;2.15;;
26277;SDS011;14000;52.056;8.510;2022-08-19T11:53:34;6.43;;;1.80;;
26277;SDS011;14000;52.056;8.510;2022-08-19T11:56:00;7.65;;;1.88;;
26277;SDS011;14000;52.056;8.510;2022-08-19T11:58:27;6.88;;;2.33;;
26277;SDS011;14000;52.056;8.510;2022-08-19T12:00:54;7.75;;;2.58;;
26277;SDS011;14000;52.056;8.510;2022-08-19T12:03:20;5.75;;;1.60;;
26277;SDS011;14000;52.056;8.510;2022-08-19T12:05:46;6.20;;;2.10;;
26277;SDS011;14000;52.056;8.510;2022-08-19T12:08:12;4.95;;;1.52;;
26277;SDS011;14000;52.056;8.510;2022-08-19T12:10:38;7.40;;;2.33;;
26277;SDS011;14000;52.056;8.510;2022-08-19T12:13:05;6.53;;;1.88;;
26277;SDS011;14000;52.056;8.510;2022-08-19T12:15:38;7.20;;;2.20;;
26277;SDS011;14000;52.056;8.510;2022-08-19T12:18:05;7.72;;;2.15;;
26277;SDS011;14000;52.056;8.510;2022-08-19T12:20:34;9.10;;;2.30;;
26277;SDS011;14000;52.056;8.510;2022-08-19T12:23:00;8.93;;;2.63;;
26277;SDS011;14000;52.056;8.510;2022-08-19T12:25:26;6.05;;;2.03;;
26277;SDS011;14000;52.056;8.510;2022-08-19T12:27:52;7.45;;;2.75;;
26277;SDS011;14000;52.056;8.510;2022-08-19T12:30:17;7.60;;;1.92;;
26277;SDS011;14000;52.056;8.510;2022-08-19T12:32:43;7.97;;;2.72;;
26277;SDS011;14000;52.056;8.510;2022-08-19T12:35:09;7.88;;;2.85;;
26277;SDS011;14000;52.056;8.510;2022-08-19T12:37:35;9.77;;;3.00;;
26277;SDS011;14000;52.056;8.510;2022-08-19T12:40:01;8.47;;;2.70;;
26277;SDS011;14000;52.056;8.510;2022-08-19T12:42:28;7.97;;;2.57;;
26277;SDS011;14000;52.056;8.510;2022-08-19T12:44:54;8.40;;;2.60;;
26277;SDS011;14000;52.056;8.510;2022-08-19T12:47:20;6.23;;;2.13;;
26277;SDS011;14000;52.056;8.510;2022-08-19T12:49:46;7.43;;;2.43;;
26277;SDS011;14000;52.056;8.510;2022-08-19T12:52:12;8.23;;;2.47;;
26277;SDS011;14000;52.056;8.510;2022-08-19T12:54:42;8.23;;;2.67;;
26277;SDS011;14000;52.056;8.510;2022-08-19T12:57:11;8.03;;;2.50;;
26277;SDS011;14000;52.056;8.510;2022-08-19T12:59:37;8.40;;;2.80;;
26277;SDS011;14000;52.056;8.510;2022-08-19T13:02:04;8.73;;;2.67;;
26277;SDS011;14000;52.056;8.510;2022-08-19T13:04:31;7.10;;;2.57;;
26277;SDS011;14000;52.056;8.510;2022-08-19T13:07:01;7.20;;;2.30;;
26277;SDS011;14000;52.056;8.510;2022-08-19T13:09:27;6.77;;;2.30;;
26277;SDS011;14000;52.056;8.510;2022-08-19T13:11:53;6.70;;;2.50;;
26277;SDS011;14000;52.056;8.510;2022-08-19T13:14:19;8.27;;;2.40;;
26277;SDS011;14000;52.056;8.510;2022-08-19T13:16:45;8.27;;;2.60;;
26277;SDS011;14000;52.056;8.510;2022-08-19T13:19:11;8.00;;;3.40;;
26277;SDS011;14000;52.056;8.510;2022-08-19T13:21:38;8.60;;;3.30;;
26277;SDS011;14000;52.056;8.510;2022-08-19T13:24:04;9.50;;;2.90;;
26277;SDS011;14000;52.056;8.510;2022-08-19T13:26:29;8.93;;;2.77;;
26277;SDS011;14000;52.056;8.510;2022-08-19T13:28:55;10.43;;;3.13;;
26277;SDS011;14000;52.056;8.510;2022-08-19T13:31:40;6.93;;;2.53;;
26277;SDS011;14000;52.056;8.510;2022-08-19T13:34:30;7.73;;;2.30;;
26277;SDS011;14000;52.056;8.510;2022-08-19T13:36:58;8.27;;;2.60;;
26277;SDS011;14000;52.056;8.510;2022-08-19T13:39:27;8.43;;;2.90;;
26277;SDS011;14000;52.056;8.510;2022-08-19T13:41:54;6.70;;;2.53;;
26277;SDS011;14000;52.056;8.510;2022-08-19T13:44:19;7.67;;;2.97;;
26277;SDS011;14000;52.056;8.510;2022-08-19T13:46:46;9.13;;;2.40;;
26277;SDS011;14000;52.056;8.510;2022-08-19T13:49:14;7.93;;;2.50;;
26277;SDS011;14000;52.056;8.510;2022-08-19T13:51:40;6.67;;;2.30;;
26277;SDS011;14000;52.056;8.510;2022-08-19T13:54:07;7.47;;;2.50;;
26277;SDS011;14000;52.056;8.510;2022-08-19T13:56:35;9.47;;;2.50;;
26277;SDS011;14000;52.056;8.510;2022-08-19T13:59:04;9.30;;;2.57;;
26277;SDS011;14000;52.056;8.510;2022-08-19T14:01:30;6.63;;;2.13;;
26277;SDS011;14000;52.056;8.510;2022-08-19T14:03:56;7.40;;;2.50;;
26277;SDS011;14000;52.056;8.510;2022-08-19T14:06:21;6.73;;;2.47;;
26277;SDS011;14000;52.056;8.510;2022-08-19T14:08:47;6.60;;;2.20;;
26277;SDS011;14000;52.056;8.510;2022-08-19T14:11:13;8.93;;;2.70;;
26277;SDS011;14000;52.056;8.510;2022-08-19T14:13:39;7.03;;;2.30;;
26277;SDS011;14000;52.056;8.510;2022-08-19T14:16:12;6.80;;;2.30;;
26277;SDS011;14000;52.056;8.510;2022-08-19T14:18:39;8.87;;;2.77;;
26277;SDS011;14000;52.056;8.510;2022-08-19T14:21:05;9.63;;;3.80;;
26277;SDS011;14000;52.056;8.510;2022-08-19T14:23:31;9.40;;;3.07;;
26277;SDS011;14000;52.056;8.510;2022-08-19T14:26:06;9.97;;;3.10;;
26277;SDS011;14000;52.056;8.510;2022-08-19T14:28:37;7.43;;;2.43;;
26277;SDS011;14000;52.056;8.510;2022-08-19T14:31:04;7.40;;;2.40;;
26277;SDS011;14000;52.056;8.510;2022-08-19T14:33:30;7.47;;;2.50;;
26277;SDS011;14000;52.056;8.510;2022-08-19T14:35:56;7.07;;;2.23;;
26277;SDS011;14000;52.056;8.510;2022-08-19T14:38:23;7.83;;;2.70;;
26277;SDS011;14000;52.056;8.510;2022-08-19T14:40:49;9.03;;;2.50;;
26277;SDS011;14000;52.056;8.510;2022-08-19T14:43:17;6.73;;;2.50;;
26277;SDS011;14000;52.056;8.510;2022-08-19T14:45:42;8.17;;;2.60;;
26277;SDS011;14000;52.056;8.510;2022-08-19T14:48:08;6.67;;;2.57;;